sensor_id;sensor_type;location;lat;lon;timestamp;P1;durP1;ratioP1;P2;durP2;ratioP2
55330;SDS011;58851;42.984;20.336;2022-12-01T00:00:19;14.82;;;9.85;;
55330;SDS011;58851;42.984;20.336;2022-12-01T00:02:45;10.30;;;8.18;;
55330;SDS011;58851;42.984;20.336;2022-12-01T00:05:11;17.63;;;13.20;;
55330;SDS011;58851;42.984;20.336;2022-12-01T00:07:36;12.15;;;10.73;;
55330;SDS011;58851;42.984;20.336;2022-12-01T00:10:02;12.13;;;9.02;;
55330;SDS011;58851;42.984;20.336;2022-12-01T00:12:47;13.27;;;9.95;;
55330;SDS011;58851;42.984;20.336;2022-12-01T00:15:12;11.30;;;8.70;;
55330;SDS011;58851;42.984;20.336;2022-12-01T00:17:38;9.98;;;8.88;;
55330;SDS011;58851;42.984;20.336;2022-12-01T00:20:07;8.45;;;7.53;;
55330;SDS011;58851;42.984;20.336;2022-12-01T00:22:34;8.32;;;7.03;;
55330;SDS011;58851;42.984;20.336;2022-12-01T00:24:59;10.27;;;8.95;;
55330;SDS011;58851;42.984;20.336;2022-12-01T00:27:25;9.52;;;7.60;;
55330;SDS011;58851;42.984;20.336;2022-12-01T00:29:51;9.70;;;8.43;;
55330;SDS011;58851;42.984;20.336;2022-12-01T00:32:17;11.25;;;9.77;;
55330;SDS011;58851;42.984;20.336;2022-12-01T00:34:43;10.13;;;7.95;;
55330;SDS011;58851;42.984;20.336;2022-12-01T00:37:08;10.63;;;9.00;;
55330;SDS011;58851;42.984;20.336;2022-12-01T00:39:34;12.15;;;8.73;;
55330;SDS011;58851;42.984;20.336;2022-12-01T00:42:00;10.18;;;7.60;;
55330;SDS011;58851;42.984;20.336;2022-12-01T00:44:28;9.30;;;7.57;;
55330;SDS011;58851;42.984;20.336;2022-12-01T00:46:55;9.82;;;7.88;;
55330;SDS011;58851;42.984;20.336;2022-12-01T00:49:21;7.90;;;6.40;;
55330;SDS011;58851;42.984;20.336;2022-12-01T00:51:47;9.15;;;6.43;;
55330;SDS011;58851;42.984;20.336;2022-12-01T00:54:13;8.65;;;6.50;;
55330;SDS011;58851;42.984;20.336;2022-12-01T00:56:39;9.70;;;7.82;;
55330;SDS011;58851;42.984;20.336;2022-12-01T00:59:05;8.85;;;6.88;;
55330;SDS011;58851;42.984;20.336;2022-12-01T01:01:30;10.55;;;7.30;;
55330;SDS011;58851;42.984;20.336;2022-12-01T01:03:57;8.50;;;7.30;;
55330;SDS011;58851;42.984;20.336;2022-12-01T01:06:23;7.53;;;6.18;;
55330;SDS011;58851;42.984;20.336;2022-12-01T01:08:48;7.18;;;5.72;;
55330;SDS011;58851;42.984;20.336;2022-12-01T01:11:14;7.63;;;6.03;;
55330;SDS011;58851;42.984;20.336;2022-12-01T01:13:40;9.35;;;6.80;;
55330;SDS011;58851;42.984;20.336;2022-12-01T01:16:08;7.93;;;6.32;;
55330;SDS011;58851;42.984;20.336;2022-12-01T01:18:41;8.57;;;6.70;;
55330;SDS011;58851;42.984;20.336;2022-12-01T01:21:07;6.00;;;5.30;;
55330;SDS011;58851;42.984;20.336;2022-12-01T01:23:36;6.93;;;5.45;;
55330;SDS011;58851;42.984;20.336;2022-12-01T01:26:06;7.07;;;5.65;;
55330;SDS011;58851;42.984;20.336;2022-12-01T01:28:35;6.82;;;5.60;;
55330;SDS011;58851;42.984;20.336;2022-12-01T01:31:04;7.50;;;5.72;;
55330;SDS011;58851;42.984;20.336;2022-12-01T01:33:31;7.20;;;5.90;;
55330;SDS011;58851;42.984;20.336;2022-12-01T01:36:00;8.13;;;6.18;;
55330;SDS011;58851;42.984;20.336;2022-12-01T01:38:26;8.25;;;6.75;;
55330;SDS011;58851;42.984;20.336;2022-12-01T01:40:53;10.48;;;8.23;;
55330;SDS011;58851;42.984;20.336;2022-12-01T01:46:17;8.75;;;7.35;;
55330;SDS011;58851;42.984;20.336;2022-12-01T01:48:55;7.82;;;6.15;;
55330;SDS011;58851;42.984;20.336;2022-12-01T01:53:55;8.43;;;6.50;;
55330;SDS011;58851;42.984;20.336;2022-12-01T01:56:24;8.30;;;5.63;;
55330;SDS011;58851;42.984;20.336;2022-12-01T01:58:50;8.57;;;6.93;;
55330;SDS011;58851;42.984;20.336;2022-12-01T02:01:17;9.05;;;6.78;;
55330;SDS011;58851;42.984;20.336;2022-12-01T02:03:43;9.35;;;5.75;;
55330;SDS011;58851;42.984;20.336;2022-12-01T02:06:10;7.22;;;5.70;;
55330;SDS011;58851;42.984;20.336;2022-12-01T02:08:36;7.63;;;6.80;;
55330;SDS011;58851;42.984;20.336;2022-12-01T02:16:30;7.43;;;5.30;;
55330;SDS011;58851;42.984;20.336;2022-12-01T02:27:36;7.60;;;5.57;;
55330;SDS011;58851;42.984;20.336;2022-12-01T02:46:23;7.85;;;6.10;;
55330;SDS011;58851;42.984;20.336;2022-12-01T02:48:57;7.32;;;5.60;;
55330;SDS011;58851;42.984;20.336;2022-12-01T02:51:29;6.80;;;5.68;;
55330;SDS011;58851;42.984;20.336;2022-12-01T02:54:00;6.93;;;5.50;;
55330;SDS011;58851;42.984;20.336;2022-12-01T02:56:28;6.70;;;4.57;;
55330;SDS011;58851;42.984;20.336;2022-12-01T02:58:53;6.38;;;5.18;;
55330;SDS011;58851;42.984;20.336;2022-12-01T03:04:23;6.00;;;4.53;;
55330;SDS011;58851;42.984;20.336;2022-12-01T03:16:15;6.88;;;5.25;;
55330;SDS011;58851;42.984;20.336;2022-12-01T03:21:24;9.60;;;5.88;;
55330;SDS011;58851;42.984;20.336;2022-12-01T03:24:00;8.77;;;6.88;;
55330;SDS011;58851;42.984;20.336;2022-12-01T03:26:33;7.72;;;6.07;;
55330;SDS011;58851;42.984;20.336;2022-12-01T03:29:05;6.40;;;5.20;;
55330;SDS011;58851;42.984;20.336;2022-12-01T03:31:36;6.43;;;4.93;;
55330;SDS011;58851;42.984;20.336;2022-12-01T03:34:08;6.43;;;4.60;;
55330;SDS011;58851;42.984;20.336;2022-12-01T03:36:43;7.10;;;5.22;;
55330;SDS011;58851;42.984;20.336;2022-12-01T03:39:14;6.40;;;4.72;;
55330;SDS011;58851;42.984;20.336;2022-12-01T03:41:56;6.97;;;5.60;;
55330;SDS011;58851;42.984;20.336;2022-12-01T03:44:28;6.03;;;4.57;;
55330;SDS011;58851;42.984;20.336;2022-12-01T03:47:04;6.40;;;4.78;;
55330;SDS011;58851;42.984;20.336;2022-12-01T03:49:33;5.85;;;4.90;;
55330;SDS011;58851;42.984;20.336;2022-12-01T03:57:05;6.22;;;4.53;;
55330;SDS011;58851;42.984;20.336;2022-12-01T03:59:35;5.90;;;4.53;;
55330;SDS011;58851;42.984;20.336;2022-12-01T04:02:04;8.88;;;6.07;;
55330;SDS011;58851;42.984;20.336;2022-12-01T04:04:33;7.28;;;4.68;;
55330;SDS011;58851;42.984;20.336;2022-12-01T04:06:59;7.68;;;6.38;;
55330;SDS011;58851;42.984;20.336;2022-12-01T04:09:24;5.75;;;5.10;;
55330;SDS011;58851;42.984;20.336;2022-12-01T04:11:50;7.18;;;5.63;;
55330;SDS011;58851;42.984;20.336;2022-12-01T04:14:34;5.85;;;4.80;;
55330;SDS011;58851;42.984;20.336;2022-12-01T04:17:00;5.32;;;4.53;;
55330;SDS011;58851;42.984;20.336;2022-12-01T04:19:26;9.15;;;6.80;;
55330;SDS011;58851;42.984;20.336;2022-12-01T04:21:52;6.70;;;5.00;;
55330;SDS011;58851;42.984;20.336;2022-12-01T04:24:18;10.98;;;7.28;;
55330;SDS011;58851;42.984;20.336;2022-12-01T04:26:43;18.40;;;10.05;;
55330;SDS011;58851;42.984;20.336;2022-12-01T04:29:10;82.15;;;36.28;;
55330;SDS011;58851;42.984;20.336;2022-12-01T04:31:36;23.98;;;12.23;;
55330;SDS011;58851;42.984;20.336;2022-12-01T04:34:02;7.90;;;5.72;;
55330;SDS011;58851;42.984;20.336;2022-12-01T04:36:30;8.55;;;5.28;;
55330;SDS011;58851;42.984;20.336;2022-12-01T04:38:57;7.68;;;5.25;;
55330;SDS011;58851;42.984;20.336;2022-12-01T04:41:24;6.53;;;5.03;;
55330;SDS011;58851;42.984;20.336;2022-12-01T04:43:53;7.18;;;5.88;;
55330;SDS011;58851;42.984;20.336;2022-12-01T04:46:20;6.38;;;4.72;;
55330;SDS011;58851;42.984;20.336;2022-12-01T04:48:46;6.75;;;4.88;;
55330;SDS011;58851;42.984;20.336;2022-12-01T04:51:12;8.48;;;5.30;;
55330;SDS011;58851;42.984;20.336;2022-12-01T04:53:38;7.30;;;5.70;;
55330;SDS011;58851;42.984;20.336;2022-12-01T04:56:04;5.63;;;4.20;;
55330;SDS011;58851;42.984;20.336;2022-12-01T04:58:31;7.05;;;4.15;;
55330;SDS011;58851;42.984;20.336;2022-12-01T05:01:01;6.13;;;4.72;;
55330;SDS011;58851;42.984;20.336;2022-12-01T05:03:28;17.65;;;11.88;;
55330;SDS011;58851;42.984;20.336;2022-12-01T05:06:01;14.13;;;10.52;;
55330;SDS011;58851;42.984;20.336;2022-12-01T05:08:32;13.73;;;9.60;;
55330;SDS011;58851;42.984;20.336;2022-12-01T05:10:58;10.55;;;7.30;;
55330;SDS011;58851;42.984;20.336;2022-12-01T05:13:24;7.82;;;5.05;;
55330;SDS011;58851;42.984;20.336;2022-12-01T05:15:51;6.82;;;5.35;;
55330;SDS011;58851;42.984;20.336;2022-12-01T05:18:17;8.38;;;5.22;;
55330;SDS011;58851;42.984;20.336;2022-12-01T05:20:43;7.82;;;5.47;;
55330;SDS011;58851;42.984;20.336;2022-12-01T05:23:21;7.82;;;5.25;;
55330;SDS011;58851;42.984;20.336;2022-12-01T05:25:53;8.18;;;6.15;;
55330;SDS011;58851;42.984;20.336;2022-12-01T05:28:20;6.13;;;5.10;;
55330;SDS011;58851;42.984;20.336;2022-12-01T05:30:47;11.00;;;7.78;;
55330;SDS011;58851;42.984;20.336;2022-12-01T05:33:14;8.65;;;5.65;;
55330;SDS011;58851;42.984;20.336;2022-12-01T05:35:39;6.53;;;4.95;;
55330;SDS011;58851;42.984;20.336;2022-12-01T05:38:05;7.72;;;5.70;;
55330;SDS011;58851;42.984;20.336;2022-12-01T05:40:31;16.90;;;11.60;;
55330;SDS011;58851;42.984;20.336;2022-12-01T05:42:57;13.30;;;8.93;;
55330;SDS011;58851;42.984;20.336;2022-12-01T05:45:24;11.75;;;8.20;;
55330;SDS011;58851;42.984;20.336;2022-12-01T05:47:53;20.65;;;15.32;;
55330;SDS011;58851;42.984;20.336;2022-12-01T05:50:19;15.35;;;11.35;;
55330;SDS011;58851;42.984;20.336;2022-12-01T05:52:45;14.07;;;9.48;;
55330;SDS011;58851;42.984;20.336;2022-12-01T05:55:11;8.75;;;7.05;;
55330;SDS011;58851;42.984;20.336;2022-12-01T05:57:37;20.75;;;15.88;;
55330;SDS011;58851;42.984;20.336;2022-12-01T06:00:03;18.17;;;14.65;;
55330;SDS011;58851;42.984;20.336;2022-12-01T06:02:30;18.98;;;12.50;;
55330;SDS011;58851;42.984;20.336;2022-12-01T06:04:55;7.35;;;5.88;;
55330;SDS011;58851;42.984;20.336;2022-12-01T06:07:21;8.73;;;6.03;;
55330;SDS011;58851;42.984;20.336;2022-12-01T06:09:49;8.05;;;6.65;;
55330;SDS011;58851;42.984;20.336;2022-12-01T06:12:16;8.48;;;5.95;;
55330;SDS011;58851;42.984;20.336;2022-12-01T06:14:41;9.30;;;5.93;;
55330;SDS011;58851;42.984;20.336;2022-12-01T06:17:07;8.18;;;6.05;;
55330;SDS011;58851;42.984;20.336;2022-12-01T06:19:33;8.55;;;5.88;;
55330;SDS011;58851;42.984;20.336;2022-12-01T06:21:59;8.32;;;6.28;;
55330;SDS011;58851;42.984;20.336;2022-12-01T06:24:25;6.75;;;5.55;;
55330;SDS011;58851;42.984;20.336;2022-12-01T06:26:50;41.78;;;24.13;;
55330;SDS011;58851;42.984;20.336;2022-12-01T06:29:16;30.45;;;19.13;;
55330;SDS011;58851;42.984;20.336;2022-12-01T06:31:42;10.65;;;8.02;;
55330;SDS011;58851;42.984;20.336;2022-12-01T06:34:08;14.02;;;9.35;;
55330;SDS011;58851;42.984;20.336;2022-12-01T06:36:34;7.45;;;4.90;;
55330;SDS011;58851;42.984;20.336;2022-12-01T06:39:00;9.98;;;8.00;;
55330;SDS011;58851;42.984;20.336;2022-12-01T06:41:30;13.07;;;9.20;;
55330;SDS011;58851;42.984;20.336;2022-12-01T06:43:56;12.38;;;10.13;;
55330;SDS011;58851;42.984;20.336;2022-12-01T06:46:21;10.15;;;7.47;;
55330;SDS011;58851;42.984;20.336;2022-12-01T06:48:47;10.68;;;8.57;;
55330;SDS011;58851;42.984;20.336;2022-12-01T06:51:13;19.73;;;14.10;;
55330;SDS011;58851;42.984;20.336;2022-12-01T06:53:39;15.57;;;11.82;;
55330;SDS011;58851;42.984;20.336;2022-12-01T06:56:04;9.48;;;7.80;;
55330;SDS011;58851;42.984;20.336;2022-12-01T06:58:31;13.07;;;8.73;;
55330;SDS011;58851;42.984;20.336;2022-12-01T07:00:56;10.77;;;8.32;;
55330;SDS011;58851;42.984;20.336;2022-12-01T07:03:23;9.00;;;6.45;;
55330;SDS011;58851;42.984;20.336;2022-12-01T07:05:58;10.73;;;7.20;;
55330;SDS011;58851;42.984;20.336;2022-12-01T07:08:25;6.50;;;4.68;;
55330;SDS011;58851;42.984;20.336;2022-12-01T07:11:01;11.32;;;9.13;;
55330;SDS011;58851;42.984;20.336;2022-12-01T07:13:31;7.70;;;5.88;;
55330;SDS011;58851;42.984;20.336;2022-12-01T07:15:57;9.35;;;6.80;;
55330;SDS011;58851;42.984;20.336;2022-12-01T07:18:23;12.90;;;8.77;;
55330;SDS011;58851;42.984;20.336;2022-12-01T07:20:49;11.73;;;8.07;;
55330;SDS011;58851;42.984;20.336;2022-12-01T07:23:15;10.27;;;7.70;;
55330;SDS011;58851;42.984;20.336;2022-12-01T07:25:41;11.15;;;8.13;;
55330;SDS011;58851;42.984;20.336;2022-12-01T07:28:06;11.60;;;7.97;;
55330;SDS011;58851;42.984;20.336;2022-12-01T07:30:33;11.40;;;7.97;;
55330;SDS011;58851;42.984;20.336;2022-12-01T07:32:58;7.93;;;6.85;;
55330;SDS011;58851;42.984;20.336;2022-12-01T07:35:25;10.50;;;8.27;;
55330;SDS011;58851;42.984;20.336;2022-12-01T07:37:54;16.92;;;12.32;;
55330;SDS011;58851;42.984;20.336;2022-12-01T07:40:20;33.97;;;23.98;;
55330;SDS011;58851;42.984;20.336;2022-12-01T07:42:46;19.90;;;14.68;;
55330;SDS011;58851;42.984;20.336;2022-12-01T07:45:12;21.83;;;16.42;;
55330;SDS011;58851;42.984;20.336;2022-12-01T07:47:38;30.75;;;22.38;;
55330;SDS011;58851;42.984;20.336;2022-12-01T07:50:04;17.55;;;10.68;;
55330;SDS011;58851;42.984;20.336;2022-12-01T07:52:30;19.52;;;14.48;;
55330;SDS011;58851;42.984;20.336;2022-12-01T07:54:56;19.50;;;14.77;;
55330;SDS011;58851;42.984;20.336;2022-12-01T07:57:22;18.08;;;13.15;;
55330;SDS011;58851;42.984;20.336;2022-12-01T07:59:48;19.08;;;15.25;;
55330;SDS011;58851;42.984;20.336;2022-12-01T08:02:14;28.45;;;19.45;;
55330;SDS011;58851;42.984;20.336;2022-12-01T08:04:40;21.48;;;15.40;;
55330;SDS011;58851;42.984;20.336;2022-12-01T08:07:07;37.33;;;24.10;;
55330;SDS011;58851;42.984;20.336;2022-12-01T08:09:32;24.83;;;17.98;;
55330;SDS011;58851;42.984;20.336;2022-12-01T08:11:58;18.98;;;12.90;;
55330;SDS011;58851;42.984;20.336;2022-12-01T08:14:24;21.27;;;14.95;;
55330;SDS011;58851;42.984;20.336;2022-12-01T08:16:50;25.00;;;17.40;;
55330;SDS011;58851;42.984;20.336;2022-12-01T08:19:16;28.10;;;20.02;;
55330;SDS011;58851;42.984;20.336;2022-12-01T08:21:41;21.70;;;16.15;;
55330;SDS011;58851;42.984;20.336;2022-12-01T08:24:08;15.30;;;12.05;;
55330;SDS011;58851;42.984;20.336;2022-12-01T08:26:34;19.60;;;14.00;;
55330;SDS011;58851;42.984;20.336;2022-12-01T08:29:00;23.90;;;17.67;;
55330;SDS011;58851;42.984;20.336;2022-12-01T08:31:27;29.40;;;20.52;;
55330;SDS011;58851;42.984;20.336;2022-12-01T08:33:55;22.25;;;18.27;;
55330;SDS011;58851;42.984;20.336;2022-12-01T08:36:21;16.15;;;13.48;;
55330;SDS011;58851;42.984;20.336;2022-12-01T08:38:48;20.33;;;14.70;;
55330;SDS011;58851;42.984;20.336;2022-12-01T08:41:17;15.48;;;12.15;;
55330;SDS011;58851;42.984;20.336;2022-12-01T08:43:43;18.70;;;11.93;;
55330;SDS011;58851;42.984;20.336;2022-12-01T08:46:10;13.15;;;10.70;;
55330;SDS011;58851;42.984;20.336;2022-12-01T08:48:37;21.33;;;13.68;;
55330;SDS011;58851;42.984;20.336;2022-12-01T08:51:08;27.50;;;20.25;;
55330;SDS011;58851;42.984;20.336;2022-12-01T08:53:39;21.73;;;15.45;;
55330;SDS011;58851;42.984;20.336;2022-12-01T08:56:18;45.40;;;37.75;;
55330;SDS011;58851;42.984;20.336;2022-12-01T08:58:46;28.40;;;23.67;;
55330;SDS011;58851;42.984;20.336;2022-12-01T09:01:13;17.55;;;14.85;;
55330;SDS011;58851;42.984;20.336;2022-12-01T09:03:40;20.55;;;16.83;;
55330;SDS011;58851;42.984;20.336;2022-12-01T09:06:08;23.17;;;19.80;;
55330;SDS011;58851;42.984;20.336;2022-12-01T09:08:36;16.67;;;14.65;;
55330;SDS011;58851;42.984;20.336;2022-12-01T09:11:03;15.70;;;13.70;;
55330;SDS011;58851;42.984;20.336;2022-12-01T09:13:32;23.33;;;18.80;;
55330;SDS011;58851;42.984;20.336;2022-12-01T09:16:20;16.20;;;13.63;;
55330;SDS011;58851;42.984;20.336;2022-12-01T09:18:45;12.00;;;9.93;;
55330;SDS011;58851;42.984;20.336;2022-12-01T09:23:38;13.48;;;12.00;;
55330;SDS011;58851;42.984;20.336;2022-12-01T09:26:05;16.45;;;13.35;;
55330;SDS011;58851;42.984;20.336;2022-12-01T09:28:31;19.30;;;15.35;;
55330;SDS011;58851;42.984;20.336;2022-12-01T09:31:01;10.18;;;8.50;;
55330;SDS011;58851;42.984;20.336;2022-12-01T09:33:29;10.98;;;9.40;;
55330;SDS011;58851;42.984;20.336;2022-12-01T09:35:56;13.32;;;10.88;;
55330;SDS011;58851;42.984;20.336;2022-12-01T09:38:23;19.20;;;16.38;;
55330;SDS011;58851;42.984;20.336;2022-12-01T09:40:49;11.10;;;9.57;;
55330;SDS011;58851;42.984;20.336;2022-12-01T09:43:23;31.58;;;26.38;;
55330;SDS011;58851;42.984;20.336;2022-12-01T09:45:59;15.52;;;13.15;;
55330;SDS011;58851;42.984;20.336;2022-12-01T09:48:35;24.50;;;21.95;;
55330;SDS011;58851;42.984;20.336;2022-12-01T09:51:14;6.97;;;6.25;;
55330;SDS011;58851;42.984;20.336;2022-12-01T09:53:42;9.05;;;7.55;;
55330;SDS011;58851;42.984;20.336;2022-12-01T09:56:20;10.98;;;9.77;;
55330;SDS011;58851;42.984;20.336;2022-12-01T09:59:00;11.38;;;9.70;;
55330;SDS011;58851;42.984;20.336;2022-12-01T10:01:37;14.70;;;12.30;;
55330;SDS011;58851;42.984;20.336;2022-12-01T10:04:51;12.50;;;8.38;;
55330;SDS011;58851;42.984;20.336;2022-12-01T10:07:03;11.32;;;9.00;;
55330;SDS011;58851;42.984;20.336;2022-12-01T10:09:46;15.80;;;12.63;;
55330;SDS011;58851;42.984;20.336;2022-12-01T10:12:28;19.58;;;13.45;;
55330;SDS011;58851;42.984;20.336;2022-12-01T10:14:59;14.43;;;10.70;;
55330;SDS011;58851;42.984;20.336;2022-12-01T10:17:45;7.45;;;5.97;;
55330;SDS011;58851;42.984;20.336;2022-12-01T10:26:53;7.50;;;6.45;;
55330;SDS011;58851;42.984;20.336;2022-12-01T10:34:41;11.95;;;9.25;;
55330;SDS011;58851;42.984;20.336;2022-12-01T10:37:21;9.43;;;7.30;;
55330;SDS011;58851;42.984;20.336;2022-12-01T10:39:53;17.83;;;12.18;;
55330;SDS011;58851;42.984;20.336;2022-12-01T10:42:24;15.60;;;11.80;;
55330;SDS011;58851;42.984;20.336;2022-12-01T10:44:54;21.70;;;16.92;;
55330;SDS011;58851;42.984;20.336;2022-12-01T10:47:24;36.05;;;26.30;;
55330;SDS011;58851;42.984;20.336;2022-12-01T10:49:52;18.58;;;13.95;;
55330;SDS011;58851;42.984;20.336;2022-12-01T10:52:37;27.02;;;17.83;;
55330;SDS011;58851;42.984;20.336;2022-12-01T10:57:47;14.40;;;12.32;;
55330;SDS011;58851;42.984;20.336;2022-12-01T11:00:35;10.60;;;8.85;;
55330;SDS011;58851;42.984;20.336;2022-12-01T11:03:02;17.23;;;13.50;;
55330;SDS011;58851;42.984;20.336;2022-12-01T11:05:31;33.00;;;23.60;;
55330;SDS011;58851;42.984;20.336;2022-12-01T11:08:01;12.48;;;8.98;;
55330;SDS011;58851;42.984;20.336;2022-12-01T11:10:34;38.85;;;24.40;;
55330;SDS011;58851;42.984;20.336;2022-12-01T11:13:03;20.17;;;14.75;;
55330;SDS011;58851;42.984;20.336;2022-12-01T11:15:48;29.83;;;22.70;;
55330;SDS011;58851;42.984;20.336;2022-12-01T11:21:03;20.17;;;14.10;;
55330;SDS011;58851;42.984;20.336;2022-12-01T11:23:29;14.88;;;13.27;;
55330;SDS011;58851;42.984;20.336;2022-12-01T11:28:23;12.95;;;10.05;;
55330;SDS011;58851;42.984;20.336;2022-12-01T11:31:03;12.32;;;10.23;;
55330;SDS011;58851;42.984;20.336;2022-12-01T11:33:52;26.40;;;20.30;;
55330;SDS011;58851;42.984;20.336;2022-12-01T11:36:19;20.20;;;18.05;;
55330;SDS011;58851;42.984;20.336;2022-12-01T11:38:45;16.88;;;15.25;;
55330;SDS011;58851;42.984;20.336;2022-12-01T11:41:34;14.27;;;12.88;;
55330;SDS011;58851;42.984;20.336;2022-12-01T11:44:03;24.23;;;18.08;;
55330;SDS011;58851;42.984;20.336;2022-12-01T11:46:34;20.30;;;18.27;;
55330;SDS011;58851;42.984;20.336;2022-12-01T11:49:05;27.77;;;19.37;;
55330;SDS011;58851;42.984;20.336;2022-12-01T11:51:43;10.73;;;8.35;;
55330;SDS011;58851;42.984;20.336;2022-12-01T11:56:38;14.13;;;12.80;;
55330;SDS011;58851;42.984;20.336;2022-12-01T11:59:09;17.58;;;13.07;;
55330;SDS011;58851;42.984;20.336;2022-12-01T12:12:50;13.85;;;11.25;;
55330;SDS011;58851;42.984;20.336;2022-12-01T12:15:50;16.77;;;13.07;;
55330;SDS011;58851;42.984;20.336;2022-12-01T12:23:46;22.95;;;17.02;;
55330;SDS011;58851;42.984;20.336;2022-12-01T12:26:24;17.02;;;13.95;;
55330;SDS011;58851;42.984;20.336;2022-12-01T12:42:25;10.65;;;8.75;;
55330;SDS011;58851;42.984;20.336;2022-12-01T12:44:56;10.27;;;8.73;;
55330;SDS011;58851;42.984;20.336;2022-12-01T12:52:45;23.15;;;14.82;;
55330;SDS011;58851;42.984;20.336;2022-12-01T12:55:21;11.43;;;7.72;;
55330;SDS011;58851;42.984;20.336;2022-12-01T12:57:56;13.18;;;9.57;;
55330;SDS011;58851;42.984;20.336;2022-12-01T13:00:27;15.15;;;11.25;;
55330;SDS011;58851;42.984;20.336;2022-12-01T13:03:15;25.13;;;20.77;;
55330;SDS011;58851;42.984;20.336;2022-12-01T13:10:52;20.17;;;16.95;;
55330;SDS011;58851;42.984;20.336;2022-12-01T13:13:25;33.55;;;24.15;;
55330;SDS011;58851;42.984;20.336;2022-12-01T13:15:57;47.70;;;27.05;;
55330;SDS011;58851;42.984;20.336;2022-12-01T13:18:31;27.60;;;20.88;;
55330;SDS011;58851;42.984;20.336;2022-12-01T13:21:30;27.90;;;20.30;;
55330;SDS011;58851;42.984;20.336;2022-12-01T13:24:11;14.10;;;11.30;;
55330;SDS011;58851;42.984;20.336;2022-12-01T13:26:42;26.23;;;20.85;;
55330;SDS011;58851;42.984;20.336;2022-12-01T13:29:12;16.40;;;14.68;;
55330;SDS011;58851;42.984;20.336;2022-12-01T13:31:50;22.45;;;16.45;;
55330;SDS011;58851;42.984;20.336;2022-12-01T13:34:24;16.23;;;11.80;;
55330;SDS011;58851;42.984;20.336;2022-12-01T13:37:02;19.58;;;13.32;;
55330;SDS011;58851;42.984;20.336;2022-12-01T13:39:32;27.95;;;18.80;;
55330;SDS011;58851;42.984;20.336;2022-12-01T13:44:30;16.40;;;12.00;;
55330;SDS011;58851;42.984;20.336;2022-12-01T13:49:45;48.03;;;31.40;;
55330;SDS011;58851;42.984;20.336;2022-12-01T13:57:33;12.50;;;11.00;;
55330;SDS011;58851;42.984;20.336;2022-12-01T14:00:20;17.75;;;13.90;;
55330;SDS011;58851;42.984;20.336;2022-12-01T14:05:44;28.95;;;19.17;;
55330;SDS011;58851;42.984;20.336;2022-12-01T14:08:22;20.27;;;16.02;;
55330;SDS011;58851;42.984;20.336;2022-12-01T14:13:26;21.30;;;16.13;;
55330;SDS011;58851;42.984;20.336;2022-12-01T14:21:04;58.88;;;39.05;;
55330;SDS011;58851;42.984;20.336;2022-12-01T14:23:35;35.25;;;25.67;;
55330;SDS011;58851;42.984;20.336;2022-12-01T14:26:21;19.77;;;15.00;;
55330;SDS011;58851;42.984;20.336;2022-12-01T14:37:40;109.53;;;68.13;;
55330;SDS011;58851;42.984;20.336;2022-12-01T14:39:40;150.18;;;93.47;;
55330;SDS011;58851;42.984;20.336;2022-12-01T14:47:21;47.20;;;35.22;;
55330;SDS011;58851;42.984;20.336;2022-12-01T14:52:49;41.53;;;32.23;;
55330;SDS011;58851;42.984;20.336;2022-12-01T14:57:48;28.88;;;22.83;;
55330;SDS011;58851;42.984;20.336;2022-12-01T15:00:19;24.52;;;19.80;;
55330;SDS011;58851;42.984;20.336;2022-12-01T15:02:50;27.95;;;20.95;;
55330;SDS011;58851;42.984;20.336;2022-12-01T15:05:24;31.73;;;22.40;;
55330;SDS011;58851;42.984;20.336;2022-12-01T15:07:56;20.48;;;15.57;;
55330;SDS011;58851;42.984;20.336;2022-12-01T15:10:28;21.00;;;15.68;;
55330;SDS011;58851;42.984;20.336;2022-12-01T15:16:11;16.13;;;11.85;;
55330;SDS011;58851;42.984;20.336;2022-12-01T15:18:42;22.05;;;15.02;;
55330;SDS011;58851;42.984;20.336;2022-12-01T15:21:15;28.08;;;23.48;;
55330;SDS011;58851;42.984;20.336;2022-12-01T15:23:56;18.40;;;15.98;;
55330;SDS011;58851;42.984;20.336;2022-12-01T15:26:23;32.22;;;23.92;;
55330;SDS011;58851;42.984;20.336;2022-12-01T15:32:05;63.30;;;42.42;;
55330;SDS011;58851;42.984;20.336;2022-12-01T15:34:35;30.13;;;24.48;;
55330;SDS011;58851;42.984;20.336;2022-12-01T15:37:23;51.72;;;39.38;;
55330;SDS011;58851;42.984;20.336;2022-12-01T15:39:51;25.73;;;19.27;;
55330;SDS011;58851;42.984;20.336;2022-12-01T15:42:22;20.45;;;16.73;;
55330;SDS011;58851;42.984;20.336;2022-12-01T15:47:31;50.67;;;38.63;;
55330;SDS011;58851;42.984;20.336;2022-12-01T15:50:00;37.03;;;28.75;;
55330;SDS011;58851;42.984;20.336;2022-12-01T15:52:26;32.28;;;26.05;;
55330;SDS011;58851;42.984;20.336;2022-12-01T15:54:52;30.38;;;23.23;;
55330;SDS011;58851;42.984;20.336;2022-12-01T15:57:19;23.25;;;18.90;;
55330;SDS011;58851;42.984;20.336;2022-12-01T15:59:50;23.25;;;18.00;;
55330;SDS011;58851;42.984;20.336;2022-12-01T16:07:31;35.60;;;25.85;;
55330;SDS011;58851;42.984;20.336;2022-12-01T16:09:58;24.08;;;18.73;;
55330;SDS011;58851;42.984;20.336;2022-12-01T16:12:29;28.73;;;22.88;;
55330;SDS011;58851;42.984;20.336;2022-12-01T16:20:43;24.73;;;18.15;;
55330;SDS011;58851;42.984;20.336;2022-12-01T16:23:10;20.08;;;15.80;;
55330;SDS011;58851;42.984;20.336;2022-12-01T16:25:43;16.85;;;14.30;;
55330;SDS011;58851;42.984;20.336;2022-12-01T16:28:30;20.25;;;17.33;;
55330;SDS011;58851;42.984;20.336;2022-12-01T16:30:59;21.08;;;14.75;;
55330;SDS011;58851;42.984;20.336;2022-12-01T16:33:26;16.02;;;12.50;;
55330;SDS011;58851;42.984;20.336;2022-12-01T16:35:53;26.40;;;18.52;;
55330;SDS011;58851;42.984;20.336;2022-12-01T16:38:20;33.97;;;25.25;;
55330;SDS011;58851;42.984;20.336;2022-12-01T16:40:48;28.00;;;20.98;;
55330;SDS011;58851;42.984;20.336;2022-12-01T16:43:16;25.05;;;20.60;;
55330;SDS011;58851;42.984;20.336;2022-12-01T16:45:43;22.23;;;17.83;;
55330;SDS011;58851;42.984;20.336;2022-12-01T16:48:11;27.90;;;21.80;;
55330;SDS011;58851;42.984;20.336;2022-12-01T16:50:37;43.40;;;31.08;;
55330;SDS011;58851;42.984;20.336;2022-12-01T16:53:03;31.75;;;26.13;;
55330;SDS011;58851;42.984;20.336;2022-12-01T16:58:12;19.15;;;16.10;;
55330;SDS011;58851;42.984;20.336;2022-12-01T17:00:38;25.60;;;19.90;;
55330;SDS011;58851;42.984;20.336;2022-12-01T17:03:04;31.42;;;24.02;;
55330;SDS011;58851;42.984;20.336;2022-12-01T17:05:30;33.00;;;24.10;;
55330;SDS011;58851;42.984;20.336;2022-12-01T17:07:56;33.13;;;25.00;;
55330;SDS011;58851;42.984;20.336;2022-12-01T17:10:22;27.70;;;21.00;;
55330;SDS011;58851;42.984;20.336;2022-12-01T17:12:48;33.38;;;26.17;;
55330;SDS011;58851;42.984;20.336;2022-12-01T17:15:14;25.35;;;17.48;;
55330;SDS011;58851;42.984;20.336;2022-12-01T17:17:41;26.05;;;20.55;;
55330;SDS011;58851;42.984;20.336;2022-12-01T17:20:07;22.75;;;18.73;;
55330;SDS011;58851;42.984;20.336;2022-12-01T17:22:33;30.50;;;20.75;;
55330;SDS011;58851;42.984;20.336;2022-12-01T17:24:59;50.67;;;33.67;;
55330;SDS011;58851;42.984;20.336;2022-12-01T17:27:26;24.45;;;18.85;;
55330;SDS011;58851;42.984;20.336;2022-12-01T17:29:53;15.02;;;10.75;;
55330;SDS011;58851;42.984;20.336;2022-12-01T17:32:19;20.55;;;14.18;;
55330;SDS011;58851;42.984;20.336;2022-12-01T17:34:45;14.65;;;11.15;;